Rio Vista Municipal (O88)
Rio Vista, CA
Field Elevation: 23
Lat: 38°11.60N  Long: 123°42.21W
CTAF/Unicom Freq: 127.0750
   
     For Weather-by-Phone, call (707) 374-5396
Weather Advisories
4/19/2014 09:19 Z
Altimeter 29.88" Hg
Wind 230° @ 10 KT
Gusts --
Visibility 10 SM
Ceiling CLR
Temperature 12° C (54° F)
Dewpoint 7° C (45° F)
Relative Humidity 69%
Density Altitude --
Condensation Altitude 2,800 feet
  Wind and Runways
Indicated Runway = 25
History
 
 
More Info
All DigiWx sites map
NOAA Forecast
 
Airport IQ 5010
(DUC) Stack Farm
(CA37) Dominican
 
about DigiWx
 
FAA Disclaimer: The data displayed is for advisory purposes only and is not to be used for flight planning or operations. For official data, please call (707) 374-5396 to hear the current automated AWOS voice message.
  METAR O88 190919Z AUTO 23010KT 10SM CLR 12/07 A2988